Time;durP1;ratioP1;P1;durP2;ratioP2;P2;SDS_P1;SDS_P2;PMS_P1;PMS_P2;Temp;Humidity;BMP_temperature;BMP_pressure;BME280_temperature;BME280_humidity;BME280_pressure;Samples;Min_cycle;Max_cycle;Signal;HPM_P1;HPM_P2
2023/10/22 00:01:16;;;;;;;0.75;0.70;;;;;;;;;;5091868;28;20200;-89
2023/10/22 00:03:44;;;;;;;1.27;0.70;;;;;;;;;;5091561;28;20681;-90
2023/10/22 00:06:11;;;;;;;2.53;1.50;;;;;;;;;;5090870;28;20204;-90
2023/10/22 00:08:40;;;;;;;1.10;0.70;;;;;;;;;;5075532;28;20216;-90
2023/10/22 00:11:08;;;;;;;2.38;1.00;;;;;;;;;;5092993;28;20216;-89
2023/10/22 00:13:35;;;;;;;1.52;0.93;;;;;;;;;;5081706;28;20259;-90
2023/10/22 00:16:03;;;;;;;0.95;0.88;;;;;;;;;;5098124;28;20661;-89
2023/10/22 00:18:31;;;;;;;0.75;0.70;;;;;;;;;;5095940;28;20625;-89
2023/10/22 00:20:58;;;;;;;0.68;0.60;;;;;;;;;;5089199;28;20204;-90
2023/10/22 00:23:26;;;;;;;1.13;1.08;;;;;;;;;;5098951;28;20319;-92
2023/10/22 00:25:55;;;;;;;1.83;0.90;;;;;;;;;;5096821;28;20204;-91
2023/10/22 00:28:23;;;;;;;1.75;0.93;;;;;;;;;;5096714;28;20312;-92
2023/10/22 00:30:50;;;;;;;1.38;0.70;;;;;;;;;;5096865;28;20227;-91
2023/10/22 00:33:18;;;;;;;4.03;1.20;;;;;;;;;;5079075;28;20279;-91
2023/10/22 00:35:56;;;;;;;1.08;0.80;;;;;;;;;;5090243;28;20263;-90
2023/10/22 00:38:24;;;;;;;0.82;0.82;;;;;;;;;;5092995;28;20207;-91
2023/10/22 00:40:52;;;;;;;4.55;1.63;;;;;;;;;;5096269;28;20207;-91
2023/10/22 00:43:21;;;;;;;1.52;0.90;;;;;;;;;;5094466;28;20201;-91
2023/10/22 00:45:49;;;;;;;0.80;0.80;;;;;;;;;;5091228;28;20291;-91
2023/10/22 00:48:18;;;;;;;1.15;0.70;;;;;;;;;;5093630;28;20319;-90
2023/10/22 00:50:46;;;;;;;0.70;0.70;;;;;;;;;;5089842;28;20192;-91
2023/10/22 00:53:15;;;;;;;2.00;1.23;;;;;;;;;;5095882;28;20286;-91
2023/10/22 00:55:45;;;;;;;0.80;0.60;;;;;;;;;;5087956;28;20267;-91
2023/10/22 00:58:13;;;;;;;2.22;1.15;;;;;;;;;;5096426;28;20204;-90
2023/10/22 01:00:43;;;;;;;1.63;0.75;;;;;;;;;;5088605;28;20283;-90
2023/10/22 01:03:10;;;;;;;1.58;0.95;;;;;;;;;;5095296;28;20299;-92
2023/10/22 01:05:38;;;;;;;0.82;0.50;;;;;;;;;;5092546;28;20742;-91
2023/10/22 01:08:06;;;;;;;1.50;0.80;;;;;;;;;;5080104;28;20675;-92
2023/10/22 01:10:34;;;;;;;2.30;0.93;;;;;;;;;;5087336;28;20303;-90
2023/10/22 01:13:03;;;;;;;0.77;0.70;;;;;;;;;;5095855;28;20284;-90
2023/10/22 01:15:31;;;;;;;1.20;0.90;;;;;;;;;;5095502;28;20315;-92
2023/10/22 01:18:00;;;;;;;0.60;0.60;;;;;;;;;;5095636;28;20643;-91
2023/10/22 01:20:28;;;;;;;0.73;0.73;;;;;;;;;;5089160;28;20624;-91
2023/10/22 01:22:55;;;;;;;1.55;0.90;;;;;;;;;;5088648;28;20201;-90
2023/10/22 01:25:24;;;;;;;1.80;0.90;;;;;;;;;;5095144;28;20227;-91
2023/10/22 01:27:52;;;;;;;0.65;0.65;;;;;;;;;;5094096;28;20287;-91
2023/10/22 01:30:19;;;;;;;2.47;1.20;;;;;;;;;;5094979;28;20306;-91
2023/10/22 01:32:47;;;;;;;0.90;0.90;;;;;;;;;;5095190;28;20295;-90
2023/10/22 01:35:15;;;;;;;1.63;1.05;;;;;;;;;;5094958;28;20231;-91
2023/10/22 01:37:43;;;;;;;1.10;0.88;;;;;;;;;;5088301;28;20291;-90
2023/10/22 01:40:12;;;;;;;0.73;0.65;;;;;;;;;;5087443;28;20278;-91
2023/10/22 01:42:41;;;;;;;2.35;0.70;;;;;;;;;;5082971;28;20280;-91
2023/10/22 01:45:10;;;;;;;0.85;0.80;;;;;;;;;;5092098;28;20224;-91
2023/10/22 01:47:37;;;;;;;0.73;0.70;;;;;;;;;;5090880;28;20212;-90
2023/10/22 01:50:06;;;;;;;0.63;0.63;;;;;;;;;;5092493;28;20310;-92
2023/10/22 01:52:34;;;;;;;1.33;0.75;;;;;;;;;;5103432;28;20204;-91
2023/10/22 01:55:01;;;;;;;1.65;1.15;;;;;;;;;;5095290;28;20307;-90
2023/10/22 01:57:29;;;;;;;1.67;0.60;;;;;;;;;;5091646;28;20207;-91
2023/10/22 01:59:58;;;;;;;0.82;0.70;;;;;;;;;;5090156;28;20291;-91
2023/10/22 02:02:26;;;;;;;0.50;0.50;;;;;;;;;;5094571;28;20283;-92
2023/10/22 02:04:53;;;;;;;1.60;1.50;;;;;;;;;;5095102;28;20716;-88
2023/10/22 02:07:21;;;;;;;1.33;1.20;;;;;;;;;;5077033;28;20205;-92
2023/10/22 02:09:49;;;;;;;0.98;0.68;;;;;;;;;;5075315;28;20307;-92
2023/10/22 02:12:16;;;;;;;0.60;0.60;;;;;;;;;;5091836;28;20295;-90
2023/10/22 02:14:44;;;;;;;0.73;0.70;;;;;;;;;;5089532;28;20427;-89
2023/10/22 02:17:13;;;;;;;1.27;0.77;;;;;;;;;;5091792;28;20642;-90
2023/10/22 02:19:41;;;;;;;2.13;0.80;;;;;;;;;;5080224;28;20645;-92
2023/10/22 02:22:09;;;;;;;2.80;0.90;;;;;;;;;;5094938;28;20280;-90
2023/10/22 02:24:37;;;;;;;1.40;1.05;;;;;;;;;;5087115;28;20223;-91
2023/10/22 02:27:05;;;;;;;1.02;0.90;;;;;;;;;;5114849;28;20235;-89
2023/10/22 02:29:32;;;;;;;0.70;0.70;;;;;;;;;;5118101;28;20216;-89
2023/10/22 02:32:00;;;;;;;1.17;1.00;;;;;;;;;;5118971;28;20206;-89
2023/10/22 02:34:29;;;;;;;2.13;1.30;;;;;;;;;;5097257;28;20229;-91
2023/10/22 02:36:56;;;;;;;1.17;0.90;;;;;;;;;;5092881;28;20203;-91
2023/10/22 02:39:25;;;;;;;1.17;0.70;;;;;;;;;;5085372;28;20210;-91
2023/10/22 02:41:52;;;;;;;1.92;1.00;;;;;;;;;;5080920;28;20224;-90
2023/10/22 02:44:20;;;;;;;1.90;1.00;;;;;;;;;;5082819;28;20313;-90
2023/10/22 02:46:48;;;;;;;1.05;0.93;;;;;;;;;;5087528;28;20201;-91
2023/10/22 02:49:15;;;;;;;0.77;0.75;;;;;;;;;;5093921;28;20296;-92
2023/10/22 02:51:44;;;;;;;0.85;0.85;;;;;;;;;;5078668;28;20192;-91
2023/10/22 02:54:12;;;;;;;1.90;0.93;;;;;;;;;;5094327;28;20297;-90
2023/10/22 02:56:39;;;;;;;1.25;0.75;;;;;;;;;;5082881;28;20280;-92
2023/10/22 02:59:07;;;;;;;0.68;0.68;;;;;;;;;;5091024;28;20212;-90
2023/10/22 03:01:35;;;;;;;1.08;0.73;;;;;;;;;;5082831;28;20253;-92
2023/10/22 03:04:03;;;;;;;1.10;0.98;;;;;;;;;;5089749;28;20224;-89
2023/10/22 03:06:31;;;;;;;2.42;1.00;;;;;;;;;;5093669;28;20574;-92
2023/10/22 03:09:00;;;;;;;0.80;0.80;;;;;;;;;;5093516;28;20647;-91
2023/10/22 03:11:27;;;;;;;0.88;0.77;;;;;;;;;;5085296;28;20772;-91
2023/10/22 03:13:55;;;;;;;2.17;1.08;;;;;;;;;;5093874;28;20212;-91
2023/10/22 03:16:23;;;;;;;2.13;1.77;;;;;;;;;;5093977;28;20204;-91
2023/10/22 03:18:52;;;;;;;1.30;1.20;;;;;;;;;;5095045;28;20753;-90
2023/10/22 03:21:24;;;;;;;0.85;0.80;;;;;;;;;;5086080;28;20292;-91
2023/10/22 03:23:51;;;;;;;1.25;1.20;;;;;;;;;;5087221;28;20682;-91
2023/10/22 03:26:21;;;;;;;2.67;1.00;;;;;;;;;;5085250;28;20216;-91
2023/10/22 03:28:50;;;;;;;0.63;0.63;;;;;;;;;;5093517;28;20205;-89
2023/10/22 03:31:18;;;;;;;1.98;1.00;;;;;;;;;;5092929;28;20220;-92
2023/10/22 03:33:46;;;;;;;1.00;0.90;;;;;;;;;;5085842;28;20221;-91
2023/10/22 03:36:15;;;;;;;1.58;0.93;;;;;;;;;;5092965;28;20196;-92
2023/10/22 03:38:43;;;;;;;1.73;1.00;;;;;;;;;;5093290;28;20648;-92
2023/10/22 03:41:11;;;;;;;0.75;0.70;;;;;;;;;;5093061;28;20208;-89
2023/10/22 03:43:40;;;;;;;2.30;1.38;;;;;;;;;;5092784;28;20220;-91
2023/10/22 03:46:08;;;;;;;2.03;0.95;;;;;;;;;;5085818;28;20287;-93
2023/10/22 03:48:35;;;;;;;1.13;0.90;;;;;;;;;;5084154;28;20196;-91
2023/10/22 03:51:04;;;;;;;5.00;2.15;;;;;;;;;;5084987;28;20312;-90
2023/10/22 03:53:32;;;;;;;2.05;1.08;;;;;;;;;;5092669;28;20217;-92
2023/10/22 03:56:00;;;;;;;2.05;0.82;;;;;;;;;;5081163;28;20205;-90
2023/10/22 03:58:27;;;;;;;1.48;1.00;;;;;;;;;;5093344;28;20214;-91
2023/10/22 04:00:56;;;;;;;1.27;1.13;;;;;;;;;;5086953;28;20212;-91
2023/10/22 04:03:24;;;;;;;2.00;1.10;;;;;;;;;;5082622;28;20729;-92
2023/10/22 04:05:59;;;;;;;1.02;0.90;;;;;;;;;;5087305;28;20576;-92
2023/10/22 04:08:28;;;;;;;1.23;1.08;;;;;;;;;;5081234;28;20234;-91
2023/10/22 04:10:56;;;;;;;0.75;0.75;;;;;;;;;;5086498;28;20227;-90
2023/10/22 04:13:23;;;;;;;0.95;0.90;;;;;;;;;;5090854;28;20287;-91
2023/10/22 04:15:52;;;;;;;1.02;1.00;;;;;;;;;;5086412;28;20210;-91
2023/10/22 04:18:21;;;;;;;0.85;0.82;;;;;;;;;;5091924;28;20200;-91
2023/10/22 04:20:50;;;;;;;1.40;1.02;;;;;;;;;;5086042;28;20206;-90
2023/10/22 04:23:18;;;;;;;0.80;0.80;;;;;;;;;;5083353;28;20231;-90
2023/10/22 04:25:45;;;;;;;1.20;1.10;;;;;;;;;;5072658;28;20197;-91
2023/10/22 04:28:14;;;;;;;2.13;1.00;;;;;;;;;;5083282;28;20196;-91
2023/10/22 04:30:43;;;;;;;2.03;1.10;;;;;;;;;;5082226;28;20290;-91
2023/10/22 04:33:11;;;;;;;1.60;1.20;;;;;;;;;;5081066;28;20680;-87
2023/10/22 04:35:40;;;;;;;4.25;1.10;;;;;;;;;;5088853;28;20200;-90
2023/10/22 04:38:07;;;;;;;2.10;0.93;;;;;;;;;;5088131;28;20224;-91
2023/10/22 04:40:36;;;;;;;1.17;0.75;;;;;;;;;;5079933;28;20283;-90
2023/10/22 04:43:04;;;;;;;1.70;1.02;;;;;;;;;;5079112;28;20674;-92
2023/10/22 04:45:31;;;;;;;1.55;1.00;;;;;;;;;;5093875;28;20304;-91
2023/10/22 04:48:00;;;;;;;1.63;1.00;;;;;;;;;;5087078;28;20674;-90
2023/10/22 04:50:29;;;;;;;3.10;1.85;;;;;;;;;;5088868;28;20867;-89
2023/10/22 04:52:58;;;;;;;1.92;0.77;;;;;;;;;;5087428;28;20236;-89
2023/10/22 04:55:26;;;;;;;2.10;1.20;;;;;;;;;;5079620;28;20303;-89
2023/10/22 04:57:55;;;;;;;1.08;0.80;;;;;;;;;;5090696;28;20219;-90
2023/10/22 05:00:23;;;;;;;3.28;1.65;;;;;;;;;;5078035;28;20236;-90
2023/10/22 05:02:50;;;;;;;1.10;1.00;;;;;;;;;;5075010;28;20572;-89
2023/10/22 05:05:19;;;;;;;1.00;0.90;;;;;;;;;;5083163;28;20745;-90
2023/10/22 05:07:49;;;;;;;1.42;1.30;;;;;;;;;;5089822;28;20194;-90
2023/10/22 05:10:18;;;;;;;1.45;0.80;;;;;;;;;;5086162;28;20254;-89
2023/10/22 05:12:45;;;;;;;1.13;1.00;;;;;;;;;;5074823;28;20217;-89
2023/10/22 05:15:13;;;;;;;1.42;1.10;;;;;;;;;;5074887;28;20300;-90
2023/10/22 05:17:42;;;;;;;1.23;0.73;;;;;;;;;;5082818;28;20193;-90
2023/10/22 05:20:10;;;;;;;1.33;1.10;;;;;;;;;;5083093;28;20290;-89
2023/10/22 05:22:38;;;;;;;2.30;1.00;;;;;;;;;;5082915;28;20473;-91
2023/10/22 05:25:07;;;;;;;1.02;0.80;;;;;;;;;;5090035;28;20227;-90
2023/10/22 05:27:36;;;;;;;2.10;0.88;;;;;;;;;;5089700;28;20199;-89
2023/10/22 05:30:04;;;;;;;0.93;0.82;;;;;;;;;;5082637;28;20198;-90
2023/10/22 05:32:31;;;;;;;0.82;0.80;;;;;;;;;;5086379;28;20711;-89
2023/10/22 05:35:01;;;;;;;1.65;0.90;;;;;;;;;;5094117;28;20261;-88
2023/10/22 05:37:28;;;;;;;1.30;0.90;;;;;;;;;;5094669;28;20207;-90
2023/10/22 05:39:58;;;;;;;2.45;1.10;;;;;;;;;;5094588;28;20268;-89
2023/10/22 05:42:25;;;;;;;2.65;1.02;;;;;;;;;;5084236;28;20291;-89
2023/10/22 05:44:54;;;;;;;3.22;0.93;;;;;;;;;;5082579;28;20225;-88
2023/10/22 05:47:22;;;;;;;2.42;0.90;;;;;;;;;;5090538;28;20296;-89
2023/10/22 05:49:49;;;;;;;3.90;1.98;;;;;;;;;;5074290;28;20288;-89
2023/10/22 05:52:17;;;;;;;0.93;0.80;;;;;;;;;;5083315;28;20227;-88
2023/10/22 05:54:44;;;;;;;0.88;0.80;;;;;;;;;;5079928;28;20745;-88
2023/10/22 05:57:12;;;;;;;0.80;0.80;;;;;;;;;;5082757;28;20228;-88
2023/10/22 05:59:39;;;;;;;1.98;0.80;;;;;;;;;;5078335;28;20279;-89
2023/10/22 06:02:08;;;;;;;1.33;1.08;;;;;;;;;;5087171;28;20273;-88
2023/10/22 06:04:36;;;;;;;1.83;0.90;;;;;;;;;;5084934;28;20767;-88
2023/10/22 06:07:04;;;;;;;0.95;0.77;;;;;;;;;;5092148;28;20287;-90
2023/10/22 06:09:31;;;;;;;1.30;0.90;;;;;;;;;;5095044;28;20210;-90
2023/10/22 06:11:59;;;;;;;3.63;1.15;;;;;;;;;;5094633;28;20604;-90
2023/10/22 06:14:27;;;;;;;1.33;0.90;;;;;;;;;;5094075;28;20595;-90
2023/10/22 06:16:54;;;;;;;2.60;1.00;;;;;;;;;;5089039;28;20578;-90
2023/10/22 06:19:23;;;;;;;2.08;0.85;;;;;;;;;;5092583;28;20292;-91
2023/10/22 06:21:51;;;;;;;1.23;1.10;;;;;;;;;;5094083;28;20291;-89
2023/10/22 06:24:18;;;;;;;2.53;1.20;;;;;;;;;;5093577;28;20251;-89
2023/10/22 06:26:46;;;;;;;1.98;0.75;;;;;;;;;;5089698;28;20215;-89
2023/10/22 06:29:13;;;;;;;1.33;0.90;;;;;;;;;;5090877;28;20653;-89
2023/10/22 06:31:41;;;;;;;1.63;1.00;;;;;;;;;;5094036;28;20324;-90
2023/10/22 06:34:09;;;;;;;3.25;1.25;;;;;;;;;;5093265;28;20235;-89
2023/10/22 06:36:38;;;;;;;4.63;2.00;;;;;;;;;;5090334;28;20292;-89
2023/10/22 06:39:06;;;;;;;2.67;1.00;;;;;;;;;;5093609;28;20200;-88
2023/10/22 06:41:34;;;;;;;3.53;1.10;;;;;;;;;;5085774;28;20253;-90
2023/10/22 06:44:01;;;;;;;1.20;1.10;;;;;;;;;;5094276;28;20834;-89
2023/10/22 06:46:29;;;;;;;3.20;1.10;;;;;;;;;;5093546;28;20219;-90
2023/10/22 06:48:56;;;;;;;1.27;1.20;;;;;;;;;;5093689;28;20208;-90
2023/10/22 06:51:24;;;;;;;1.88;0.82;;;;;;;;;;5092642;28;20199;-89
2023/10/22 06:53:53;;;;;;;1.90;1.02;;;;;;;;;;5078916;28;20493;-90
2023/10/22 06:56:20;;;;;;;1.50;1.10;;;;;;;;;;5088454;28;20249;-91
2023/10/22 06:58:48;;;;;;;2.28;1.20;;;;;;;;;;5096033;28;20200;-91
2023/10/22 07:01:16;;;;;;;1.20;1.10;;;;;;;;;;5093839;28;20200;-92
2023/10/22 07:03:45;;;;;;;1.00;0.90;;;;;;;;;;5093410;28;20226;-91
2023/10/22 07:06:12;;;;;;;1.20;0.90;;;;;;;;;;5092959;28;20643;-91
2023/10/22 07:08:40;;;;;;;1.23;0.90;;;;;;;;;;5085246;28;20296;-89
2023/10/22 07:11:09;;;;;;;2.50;1.10;;;;;;;;;;5086087;28;20600;-90
2023/10/22 07:13:37;;;;;;;0.80;0.80;;;;;;;;;;5095902;28;20287;-91
2023/10/22 07:16:05;;;;;;;2.72;1.17;;;;;;;;;;5087239;28;20212;-89
2023/10/22 07:18:33;;;;;;;2.35;2.03;;;;;;;;;;5090861;28;20275;-90
2023/10/22 07:21:01;;;;;;;2.40;2.20;;;;;;;;;;5104027;28;20215;-90
2023/10/22 07:23:31;;;;;;;1.55;1.10;;;;;;;;;;5113798;28;20204;-88
2023/10/22 07:25:59;;;;;;;1.58;0.98;;;;;;;;;;5117848;28;20215;-86
2023/10/22 07:28:28;;;;;;;1.67;1.17;;;;;;;;;;5110078;28;20594;-89
2023/10/22 07:30:55;;;;;;;1.33;1.13;;;;;;;;;;5093442;28;20296;-89
2023/10/22 07:33:24;;;;;;;0.85;0.85;;;;;;;;;;5092667;28;20772;-88
2023/10/22 07:35:55;;;;;;;1.83;1.10;;;;;;;;;;5085095;28;20205;-89
2023/10/22 07:38:24;;;;;;;2.08;1.00;;;;;;;;;;5090496;28;20228;-90
2023/10/22 07:40:55;;;;;;;3.55;1.17;;;;;;;;;;5092927;28;20269;-90
2023/10/22 07:43:24;;;;;;;2.55;1.20;;;;;;;;;;5092597;28;20204;-90
2023/10/22 07:45:52;;;;;;;1.40;0.90;;;;;;;;;;5093028;28;20268;-90
2023/10/22 07:48:20;;;;;;;1.48;1.00;;;;;;;;;;5092962;28;20702;-91
2023/10/22 07:50:48;;;;;;;1.35;1.00;;;;;;;;;;5093281;28;20200;-89
2023/10/22 07:53:17;;;;;;;2.15;0.95;;;;;;;;;;5092428;28;20648;-89
2023/10/22 07:55:45;;;;;;;1.77;1.20;;;;;;;;;;5073108;28;20266;-90
2023/10/22 07:58:13;;;;;;;1.27;0.90;;;;;;;;;;5094254;28;20208;-89
2023/10/22 08:00:40;;;;;;;1.30;0.80;;;;;;;;;;5076148;28;20598;-89
2023/10/22 08:03:09;;;;;;;2.10;0.95;;;;;;;;;;5085215;28;20235;-89
2023/10/22 08:05:37;;;;;;;2.80;1.58;;;;;;;;;;5091558;28;20258;-89
2023/10/22 08:08:05;;;;;;;2.15;0.77;;;;;;;;;;5092637;28;20282;-90
2023/10/22 08:10:33;;;;;;;1.45;1.00;;;;;;;;;;5092311;28;20657;-90
2023/10/22 08:13:01;;;;;;;1.13;0.82;;;;;;;;;;5092437;28;20252;-89
2023/10/22 08:15:29;;;;;;;1.88;1.08;;;;;;;;;;5092166;28;20220;-89
2023/10/22 08:17:56;;;;;;;2.08;1.25;;;;;;;;;;5092826;28;20269;-89
2023/10/22 08:20:25;;;;;;;0.65;0.65;;;;;;;;;;5083132;28;20251;-89
2023/10/22 08:22:52;;;;;;;1.42;1.13;;;;;;;;;;5085968;28;20623;-89
2023/10/22 08:25:20;;;;;;;1.95;0.70;;;;;;;;;;5092085;28;20224;-90
2023/10/22 08:27:47;;;;;;;1.73;0.63;;;;;;;;;;5094191;28;20283;-88
2023/10/22 08:30:15;;;;;;;1.02;0.93;;;;;;;;;;5079827;28;20287;-88
2023/10/22 08:32:46;;;;;;;3.22;1.30;;;;;;;;;;5076341;28;20642;-89
2023/10/22 08:35:14;;;;;;;2.78;1.88;;;;;;;;;;5084527;28;20290;-87
2023/10/22 08:37:44;;;;;;;0.77;0.70;;;;;;;;;;5096298;28;20283;-89
2023/10/22 08:40:12;;;;;;;0.93;0.80;;;;;;;;;;5096522;28;20208;-89
2023/10/22 08:42:40;;;;;;;2.55;0.80;;;;;;;;;;5088102;28;20291;-89
2023/10/22 08:45:09;;;;;;;2.95;1.17;;;;;;;;;;5097408;28;20224;-89
2023/10/22 08:47:38;;;;;;;1.98;1.10;;;;;;;;;;5096153;28;20279;-90
2023/10/22 08:50:06;;;;;;;2.53;1.05;;;;;;;;;;5096196;28;20206;-90
2023/10/22 08:52:34;;;;;;;1.90;1.42;;;;;;;;;;5095727;28;20287;-91
2023/10/22 08:55:04;;;;;;;1.23;1.10;;;;;;;;;;5089360;28;20232;-90
2023/10/22 08:57:32;;;;;;;0.95;0.80;;;;;;;;;;5094608;28;20206;-90
2023/10/22 08:59:59;;;;;;;3.00;1.23;;;;;;;;;;5096112;28;20214;-90
2023/10/22 09:02:28;;;;;;;1.08;0.90;;;;;;;;;;5096031;28;20196;-90
2023/10/22 09:04:55;;;;;;;1.60;1.15;;;;;;;;;;5095269;28;20315;-89
2023/10/22 09:07:50;;;;;;;3.17;1.38;;;;;;;;;;5085731;28;20193;-88
2023/10/22 09:10:28;;;;;;;1.40;1.20;;;;;;;;;;5083754;28;20216;-89
2023/10/22 09:13:03;;;;;;;4.63;1.25;;;;;;;;;;5081334;28;20196;-89
2023/10/22 09:15:31;;;;;;;1.42;1.17;;;;;;;;;;5094964;28;20306;-89
2023/10/22 09:18:03;;;;;;;1.65;1.02;;;;;;;;;;5094963;28;20208;-90
2023/10/22 09:20:31;;;;;;;1.17;1.10;;;;;;;;;;5093286;28;20208;-90
2023/10/22 09:23:14;;;;;;;1.33;0.90;;;;;;;;;;5092146;28;20650;-88
2023/10/22 09:28:16;;;;;;;1.17;1.10;;;;;;;;;;5053193;28;20213;-86
2023/10/22 09:30:43;;;;;;;0.80;0.80;;;;;;;;;;5054423;28;20209;-89
2023/10/22 09:33:11;;;;;;;1.67;1.00;;;;;;;;;;5054530;28;20553;-87
2023/10/22 09:35:40;;;;;;;1.83;0.90;;;;;;;;;;5038180;28;20669;-89
2023/10/22 09:38:08;;;;;;;2.58;1.10;;;;;;;;;;5034060;28;20268;-87
2023/10/22 09:40:36;;;;;;;1.35;1.00;;;;;;;;;;5034252;28;20207;-86
2023/10/22 09:43:04;;;;;;;0.95;0.82;;;;;;;;;;5034218;28;20202;-89
2023/10/22 09:45:33;;;;;;;3.13;1.10;;;;;;;;;;5033868;28;20722;-88
2023/10/22 09:48:07;;;;;;;1.23;1.00;;;;;;;;;;5034040;28;20237;-89
2023/10/22 09:50:35;;;;;;;2.13;0.80;;;;;;;;;;5034072;28;20208;-90
2023/10/22 09:53:05;;;;;;;0.80;0.80;;;;;;;;;;5033960;28;20210;-87
2023/10/22 09:55:35;;;;;;;2.00;1.25;;;;;;;;;;5033386;28;20234;-87
2023/10/22 09:58:03;;;;;;;1.75;0.82;;;;;;;;;;5034153;28;20202;-87
2023/10/22 10:00:32;;;;;;;1.02;0.80;;;;;;;;;;5033776;28;20214;-86
2023/10/22 10:02:59;;;;;;;1.08;1.00;;;;;;;;;;5033810;28;20191;-86
2023/10/22 10:05:27;;;;;;;1.42;1.15;;;;;;;;;;5033215;28;20273;-89
2023/10/22 10:07:55;;;;;;;1.23;0.90;;;;;;;;;;5033712;28;20238;-89
2023/10/22 10:10:24;;;;;;;0.90;0.90;;;;;;;;;;5033768;28;20293;-89
2023/10/22 10:12:51;;;;;;;1.15;0.90;;;;;;;;;;5033783;28;20232;-89
2023/10/22 10:15:36;;;;;;;1.17;0.80;;;;;;;;;;5033315;28;20242;-86
2023/10/22 10:18:06;;;;;;;0.85;0.75;;;;;;;;;;5033124;28;20751;-89
2023/10/22 10:20:35;;;;;;;0.80;0.80;;;;;;;;;;5034067;28;20205;-87
2023/10/22 10:23:06;;;;;;;1.23;1.10;;;;;;;;;;5033597;28;20252;-89
2023/10/22 10:25:35;;;;;;;1.60;1.17;;;;;;;;;;5032843;28;20222;-89
2023/10/22 10:28:04;;;;;;;2.08;1.27;;;;;;;;;;5033325;28;20272;-89
2023/10/22 10:30:33;;;;;;;0.60;0.60;;;;;;;;;;5033072;28;20668;-89
2023/10/22 10:33:01;;;;;;;1.10;0.90;;;;;;;;;;5033369;28;20645;-87
2023/10/22 10:35:29;;;;;;;1.75;1.17;;;;;;;;;;5032583;28;20314;-87
2023/10/22 10:38:22;;;;;;;1.65;1.55;;;;;;;;;;5033423;28;20296;-87
2023/10/22 10:40:52;;;;;;;1.50;0.90;;;;;;;;;;5033381;28;20220;-87
2023/10/22 10:43:20;;;;;;;1.02;0.80;;;;;;;;;;5032633;28;20301;-87
2023/10/22 10:46:26;;;;;;;3.30;1.10;;;;;;;;;;5033445;28;20226;-87
2023/10/22 10:48:54;;;;;;;1.23;0.80;;;;;;;;;;5033771;28;20210;-86
2023/10/22 10:51:24;;;;;;;1.10;1.00;;;;;;;;;;5035433;28;20289;-87
2023/10/22 10:54:18;;;;;;;0.82;0.80;;;;;;;;;;5033371;28;20210;-86
2023/10/22 10:56:50;;;;;;;1.15;1.15;;;;;;;;;;5036018;28;20691;-87
2023/10/22 10:59:32;;;;;;;1.17;0.85;;;;;;;;;;5035840;28;20312;-88
2023/10/22 11:02:07;;;;;;;1.13;0.90;;;;;;;;;;5033712;28;20225;-87
2023/10/22 11:04:36;;;;;;;1.30;1.20;;;;;;;;;;5033000;28;20218;-87
2023/10/22 11:07:05;;;;;;;1.35;1.15;;;;;;;;;;5033237;28;20205;-87
2023/10/22 11:09:34;;;;;;;1.55;0.93;;;;;;;;;;5033139;28;20198;-87
2023/10/22 11:12:05;;;;;;;1.65;0.75;;;;;;;;;;5032623;28;20194;-86
2023/10/22 11:14:33;;;;;;;1.35;1.00;;;;;;;;;;5032251;28;20384;-87
2023/10/22 11:17:01;;;;;;;1.92;0.98;;;;;;;;;;5032409;28;20226;-87
2023/10/22 11:19:31;;;;;;;1.85;0.80;;;;;;;;;;5032405;28;20210;-87
2023/10/22 11:22:00;;;;;;;1.60;1.15;;;;;;;;;;5032414;28;20285;-87
2023/10/22 11:24:30;;;;;;;1.05;0.80;;;;;;;;;;5032840;28;20238;-87
2023/10/22 11:26:58;;;;;;;1.17;1.10;;;;;;;;;;5031930;28;20245;-87
2023/10/22 11:29:26;;;;;;;0.77;0.77;;;;;;;;;;5032103;28;20213;-87
2023/10/22 11:31:58;;;;;;;0.88;0.70;;;;;;;;;;5032486;28;20297;-86
2023/10/22 11:34:29;;;;;;;7.78;0.95;;;;;;;;;;5031802;28;20301;-87
2023/10/22 11:37:00;;;;;;;1.10;0.98;;;;;;;;;;5032251;28;20210;-87
2023/10/22 11:39:34;;;;;;;0.82;0.75;;;;;;;;;;5031805;28;20202;-87
2023/10/22 11:42:03;;;;;;;1.20;0.73;;;;;;;;;;5032336;28;20227;-87
2023/10/22 11:44:33;;;;;;;1.13;1.05;;;;;;;;;;5031920;28;20221;-87
2023/10/22 11:47:02;;;;;;;0.80;0.80;;;;;;;;;;5032154;28;20218;-87
2023/10/22 11:49:31;;;;;;;0.60;0.60;;;;;;;;;;5032026;28;20729;-87
2023/10/22 11:51:58;;;;;;;3.67;0.80;;;;;;;;;;5033676;28;20202;-87
2023/10/22 11:54:45;;;;;;;0.50;0.50;;;;;;;;;;5031648;28;20218;-87
2023/10/22 11:57:13;;;;;;;1.55;0.82;;;;;;;;;;5031669;28;20224;-87
2023/10/22 11:59:41;;;;;;;0.65;0.63;;;;;;;;;;5031971;28;20202;-87
2023/10/22 12:02:09;;;;;;;0.52;0.52;;;;;;;;;;5031732;28;20229;-87
2023/10/22 12:04:38;;;;;;;0.60;0.60;;;;;;;;;;5031614;28;20236;-89
2023/10/22 12:07:05;;;;;;;0.35;0.35;;;;;;;;;;5032393;28;20572;-87
2023/10/22 12:09:33;;;;;;;0.43;0.43;;;;;;;;;;5031784;28;20212;-87
2023/10/22 12:12:00;;;;;;;0.40;0.40;;;;;;;;;;5032101;28;20202;-87
2023/10/22 12:14:28;;;;;;;0.50;0.50;;;;;;;;;;5031398;28;20320;-87
2023/10/22 12:16:56;;;;;;;0.93;0.50;;;;;;;;;;5031333;28;20765;-87
2023/10/22 12:19:23;;;;;;;0.75;0.40;;;;;;;;;;5031456;28;20202;-87
2023/10/22 12:21:52;;;;;;;0.50;0.50;;;;;;;;;;5031818;28;20214;-87
2023/10/22 12:24:20;;;;;;;1.15;0.70;;;;;;;;;;5030732;28;20218;-88
2023/10/22 12:26:47;;;;;;;1.05;1.05;;;;;;;;;;5031492;28;20316;-87
2023/10/22 12:29:15;;;;;;;0.50;0.50;;;;;;;;;;5031603;28;20289;-87
2023/10/22 12:31:43;;;;;;;0.73;0.60;;;;;;;;;;5031691;28;20224;-87
2023/10/22 12:34:11;;;;;;;0.60;0.60;;;;;;;;;;5031419;28;20309;-87
2023/10/22 12:36:39;;;;;;;0.90;0.75;;;;;;;;;;5031162;28;20309;-87
2023/10/22 12:39:08;;;;;;;0.77;0.77;;;;;;;;;;5031462;28;20655;-87
2023/10/22 12:41:36;;;;;;;0.40;0.40;;;;;;;;;;5031369;28;20195;-87
2023/10/22 12:44:04;;;;;;;0.60;0.60;;;;;;;;;;5031108;28;20211;-87
2023/10/22 12:46:32;;;;;;;0.65;0.65;;;;;;;;;;5031413;28;20207;-87
2023/10/22 12:49:00;;;;;;;0.70;0.60;;;;;;;;;;5031141;28;20289;-88
2023/10/22 12:51:27;;;;;;;0.50;0.50;;;;;;;;;;5031263;28;20211;-87
2023/10/22 12:53:55;;;;;;;1.00;0.57;;;;;;;;;;5030790;28;20213;-87
2023/10/22 12:56:23;;;;;;;0.47;0.47;;;;;;;;;;5030808;28;20762;-87
2023/10/22 12:58:55;;;;;;;0.40;0.40;;;;;;;;;;5031433;28;20469;-87
2023/10/22 13:01:22;;;;;;;0.52;0.40;;;;;;;;;;5031235;28;20206;-87
2023/10/22 13:03:50;;;;;;;1.02;0.40;;;;;;;;;;5030844;28;20292;-87
2023/10/22 13:06:17;;;;;;;0.40;0.35;;;;;;;;;;5031247;28;20293;-87
2023/10/22 13:08:45;;;;;;;0.52;0.52;;;;;;;;;;5031002;28;20656;-87
2023/10/22 13:11:17;;;;;;;0.45;0.45;;;;;;;;;;5031124;28;20660;-87
2023/10/22 13:13:46;;;;;;;0.50;0.50;;;;;;;;;;5032316;28;20213;-87
2023/10/22 13:16:13;;;;;;;0.50;0.50;;;;;;;;;;5034658;28;20234;-86
2023/10/22 13:18:42;;;;;;;0.60;0.60;;;;;;;;;;5034970;28;20253;-87
2023/10/22 13:21:09;;;;;;;0.30;0.30;;;;;;;;;;5034962;28;20210;-87
2023/10/22 13:23:37;;;;;;;1.10;0.57;;;;;;;;;;5034062;28;20211;-88
2023/10/22 13:26:04;;;;;;;0.40;0.40;;;;;;;;;;5033584;28;20268;-88
2023/10/22 13:28:32;;;;;;;0.73;0.60;;;;;;;;;;5034355;28;20206;-88
2023/10/22 13:31:01;;;;;;;0.30;0.30;;;;;;;;;;5034456;28;20316;-87
2023/10/22 13:33:28;;;;;;;0.40;0.40;;;;;;;;;;5033995;28;20754;-87
2023/10/22 13:35:58;;;;;;;0.30;0.30;;;;;;;;;;5034225;28;20254;-87
2023/10/22 13:38:26;;;;;;;0.38;0.30;;;;;;;;;;5034527;28;20202;-87
2023/10/22 13:40:53;;;;;;;0.50;0.50;;;;;;;;;;5034585;28;20649;-87
2023/10/22 13:43:20;;;;;;;0.45;0.45;;;;;;;;;;5033868;28;20663;-86
2023/10/22 13:45:48;;;;;;;0.40;0.32;;;;;;;;;;5026814;28;20783;-87
2023/10/22 13:48:17;;;;;;;0.40;0.40;;;;;;;;;;5036463;28;20579;-86
2023/10/22 13:50:44;;;;;;;0.50;0.50;;;;;;;;;;5040776;28;20664;-87
2023/10/22 13:53:13;;;;;;;0.60;0.60;;;;;;;;;;5041350;28;20238;-88
2023/10/22 13:55:41;;;;;;;0.50;0.50;;;;;;;;;;5040599;28;20222;-87
2023/10/22 13:58:08;;;;;;;0.30;0.30;;;;;;;;;;5040984;28;20253;-87
2023/10/22 14:00:39;;;;;;;0.30;0.30;;;;;;;;;;5036166;28;20209;-87
2023/10/22 14:03:06;;;;;;;0.25;0.25;;;;;;;;;;5035505;28;20683;-87
2023/10/22 14:05:35;;;;;;;0.40;0.40;;;;;;;;;;5035012;28;20218;-87
2023/10/22 14:08:03;;;;;;;0.47;0.47;;;;;;;;;;5033920;28;20678;-87
2023/10/22 14:10:31;;;;;;;0.50;0.50;;;;;;;;;;5033812;28;20205;-89
2023/10/22 14:13:00;;;;;;;0.52;0.52;;;;;;;;;;5033730;28;20654;-88
2023/10/22 14:15:27;;;;;;;0.50;0.50;;;;;;;;;;5033300;28;20225;-87
2023/10/22 14:17:55;;;;;;;0.50;0.50;;;;;;;;;;5033217;28;20237;-87
2023/10/22 14:20:22;;;;;;;0.70;0.70;;;;;;;;;;5033919;28;20202;-87
2023/10/22 14:22:51;;;;;;;1.25;0.98;;;;;;;;;;5033567;28;20698;-87
2023/10/22 14:25:18;;;;;;;0.80;0.80;;;;;;;;;;5031470;28;20226;-87
2023/10/22 14:27:47;;;;;;;0.32;0.32;;;;;;;;;;5033292;28;20210;-87
2023/10/22 14:30:15;;;;;;;0.60;0.60;;;;;;;;;;5033313;28;20653;-87
2023/10/22 14:32:43;;;;;;;0.77;0.77;;;;;;;;;;5032688;28;20664;-87
2023/10/22 14:35:11;;;;;;;1.17;0.40;;;;;;;;;;5033124;28;20317;-87
2023/10/22 14:37:38;;;;;;;0.75;0.70;;;;;;;;;;5033247;28;20230;-87
2023/10/22 14:40:09;;;;;;;0.50;0.50;;;;;;;;;;5033529;28;20198;-87
2023/10/22 14:42:36;;;;;;;0.50;0.50;;;;;;;;;;5032887;28;20702;-87
2023/10/22 14:45:07;;;;;;;0.50;0.50;;;;;;;;;;5032944;28;20226;-87
2023/10/22 14:47:35;;;;;;;0.32;0.32;;;;;;;;;;5034652;28;20289;-87
2023/10/22 14:50:02;;;;;;;0.75;0.50;;;;;;;;;;5033295;28;20214;-87
2023/10/22 14:52:30;;;;;;;0.63;0.63;;;;;;;;;;5033291;28;20275;-87
2023/10/22 14:54:57;;;;;;;0.50;0.50;;;;;;;;;;5033242;28;20229;-87